createdAt,value
2023-04-30T00:02:04.441Z,4.00
2023-04-30T00:04:34.155Z,7.60
2023-04-30T00:07:04.334Z,5.60
2023-04-30T00:09:32.466Z,4.90
2023-04-30T00:12:00.737Z,4.30
2023-04-30T00:14:30.054Z,5.00
2023-04-30T00:16:58.259Z,4.80
2023-04-30T00:19:27.705Z,5.60
2023-04-30T00:21:59.791Z,5.80
2023-04-30T00:24:29.293Z,6.00
2023-04-30T00:26:58.720Z,4.70
2023-04-30T00:29:27.117Z,3.90
2023-04-30T00:31:55.453Z,3.60
2023-04-30T00:34:24.986Z,5.70
2023-04-30T00:39:26.763Z,5.40
2023-04-30T00:41:55.031Z,4.50
2023-04-30T00:44:23.312Z,3.00
2023-04-30T00:46:51.461Z,4.80
2023-04-30T00:49:21.036Z,3.30
2023-04-30T00:51:49.593Z,4.20
2023-04-30T00:54:18.944Z,4.50
2023-04-30T00:56:49.825Z,2.90
2023-04-30T00:59:19.416Z,2.70
2023-04-30T01:01:49.304Z,3.90
2023-04-30T01:04:17.666Z,4.10
2023-04-30T01:06:48.899Z,4.60
2023-04-30T01:09:18.214Z,4.20
2023-04-30T01:12:03.144Z,4.10
2023-04-30T01:14:41.853Z,4.10
2023-04-30T01:17:24.898Z,1.70
2023-04-30T01:19:55.545Z,4.70
2023-04-30T01:22:37.621Z,4.30
2023-04-30T01:25:36.825Z,3.80
2023-04-30T01:28:15.448Z,5.00
2023-04-30T01:30:46.103Z,3.00
2023-04-30T01:33:16.919Z,4.90
2023-04-30T01:36:46.639Z,4.30
2023-04-30T01:39:47.114Z,4.40
2023-04-30T01:42:24.222Z,4.10
2023-04-30T01:45:22.615Z,4.00
2023-04-30T01:47:59.994Z,4.80
2023-04-30T01:50:39.765Z,3.30
2023-04-30T01:53:15.540Z,4.80
2023-04-30T01:55:56.489Z,5.10
2023-04-30T01:58:28.440Z,3.40
2023-04-30T02:00:59.402Z,3.80
2023-04-30T02:05:59.101Z,3.90
2023-04-30T02:08:28.038Z,2.50
2023-04-30T02:10:57.507Z,2.10
2023-04-30T02:13:26.887Z,2.10
2023-04-30T02:15:56.228Z,4.20
2023-04-30T02:18:27.064Z,3.90
2023-04-30T02:20:57.065Z,3.50
2023-04-30T02:23:27.655Z,1.60
2023-04-30T02:25:55.902Z,1.50
2023-04-30T02:28:25.287Z,2.10
2023-04-30T02:30:54.771Z,3.10
2023-04-30T02:33:25.812Z,3.70
2023-04-30T02:38:26.238Z,1.70
2023-04-30T02:43:25.476Z,3.40
2023-04-30T02:45:53.636Z,3.90
2023-04-30T02:48:21.844Z,3.40
2023-04-30T02:50:51.368Z,3.20
2023-04-30T02:53:21.915Z,2.30
2023-04-30T02:55:50.102Z,3.30
2023-04-30T02:58:19.555Z,2.00
2023-04-30T03:00:47.943Z,1.70
2023-04-30T03:03:16.334Z,2.20
2023-04-30T03:05:45.711Z,2.50
2023-04-30T03:08:15.430Z,3.00
2023-04-30T03:10:45.557Z,3.30
2023-04-30T03:13:16.332Z,1.90
2023-04-30T03:15:44.822Z,2.30
2023-04-30T03:18:16.001Z,1.00
2023-04-30T03:20:45.526Z,2.50
2023-04-30T03:23:15.416Z,1.70
2023-04-30T03:25:44.164Z,1.70
2023-04-30T03:28:14.845Z,1.60
2023-04-30T03:30:44.235Z,2.60
2023-04-30T03:33:13.798Z,1.10
2023-04-30T03:35:43.392Z,1.30
2023-04-30T03:38:14.358Z,0.50
2023-04-30T03:40:43.795Z,2.50
2023-04-30T03:43:15.120Z,0.90
2023-04-30T03:45:44.522Z,2.30
2023-04-30T03:48:15.605Z,0.40
2023-04-30T03:50:43.693Z,2.10
2023-04-30T03:53:16.939Z,1.90
2023-04-30T03:55:46.526Z,0.90
2023-04-30T03:58:16.036Z,1.50
2023-04-30T04:00:47.664Z,1.20
2023-04-30T04:03:19.010Z,0.70
2023-04-30T04:05:47.738Z,0.50
2023-04-30T04:08:19.678Z,1.00
2023-04-30T04:10:47.879Z,1.50
2023-04-30T04:13:17.296Z,1.60
2023-04-30T04:15:45.546Z,2.20
2023-04-30T04:18:14.993Z,2.20
2023-04-30T04:20:43.095Z,1.70
2023-04-30T04:23:14.425Z,2.40
2023-04-30T04:25:49.595Z,2.40
2023-04-30T04:28:17.861Z,1.80
2023-04-30T04:30:46.751Z,2.20
2023-04-30T04:33:16.083Z,1.90
2023-04-30T04:35:46.055Z,2.00
2023-04-30T04:38:16.690Z,2.30
2023-04-30T04:40:54.448Z,2.40
2023-04-30T04:43:25.268Z,2.30
2023-04-30T04:45:53.578Z,1.40
2023-04-30T04:48:24.096Z,1.40
2023-04-30T04:50:53.527Z,2.60
2023-04-30T05:00:54.878Z,3.50
2023-04-30T05:03:26.103Z,4.60
2023-04-30T05:05:54.486Z,3.00
2023-04-30T05:08:22.794Z,3.60
2023-04-30T05:13:22.450Z,5.70
2023-04-30T05:15:53.028Z,4.70
2023-04-30T05:18:23.697Z,6.10
2023-04-30T05:20:52.999Z,6.10
2023-04-30T05:23:23.663Z,6.90
2023-04-30T05:25:53.470Z,4.80
2023-04-30T05:28:25.547Z,7.10
2023-04-30T05:30:53.696Z,6.70
2023-04-30T05:33:21.958Z,5.10
2023-04-30T05:35:51.291Z,8.10
2023-04-30T05:38:19.490Z,5.50
2023-04-30T05:40:50.157Z,6.10
2023-04-30T05:43:18.378Z,5.50
2023-04-30T05:45:49.270Z,6.40
2023-04-30T05:48:18.731Z,8.20
2023-04-30T05:53:18.017Z,8.40
2023-04-30T05:55:47.396Z,6.20
2023-04-30T05:58:16.768Z,9.00
2023-04-30T06:00:49.698Z,7.20
2023-04-30T06:03:19.775Z,9.50
2023-04-30T06:05:50.687Z,8.00
2023-04-30T06:08:20.130Z,9.80
2023-04-30T06:10:49.967Z,9.20
2023-04-30T06:13:19.534Z,8.10
2023-04-30T06:15:49.091Z,8.40
2023-04-30T06:18:20.363Z,10.40
2023-04-30T06:20:50.900Z,7.80
2023-04-30T06:23:19.280Z,7.90
2023-04-30T06:30:50.388Z,8.50
2023-04-30T06:33:21.342Z,11.10
2023-04-30T06:35:52.684Z,10.70
2023-04-30T06:38:21.090Z,9.50
2023-04-30T06:40:51.749Z,9.40
2023-04-30T06:45:49.570Z,10.90
2023-04-30T06:48:20.356Z,13.00
2023-04-30T06:50:49.910Z,10.80
2023-04-30T06:53:19.288Z,13.80
2023-04-30T06:55:47.592Z,14.20
2023-04-30T06:58:15.925Z,13.50
2023-04-30T07:00:45.320Z,14.00
2023-04-30T07:03:13.951Z,15.10
2023-04-30T07:05:43.550Z,15.00
2023-04-30T07:08:13.071Z,13.80
2023-04-30T07:10:42.554Z,14.90
2023-04-30T07:13:12.045Z,14.00
2023-04-30T07:15:41.616Z,14.80
2023-04-30T07:18:11.594Z,16.10
2023-04-30T07:20:41.150Z,14.90
2023-04-30T07:23:11.784Z,14.60
2023-04-30T07:25:41.513Z,15.70
2023-04-30T07:28:11.336Z,14.10
2023-04-30T07:30:42.262Z,14.70
2023-04-30T07:33:10.509Z,16.30
2023-04-30T07:35:41.108Z,15.30
2023-04-30T07:38:13.030Z,14.90
2023-04-30T07:40:41.241Z,15.90
2023-04-30T07:43:11.968Z,17.20
2023-04-30T07:45:42.532Z,16.40
2023-04-30T07:48:12.155Z,15.90
2023-04-30T07:50:41.717Z,17.00
2023-04-30T07:53:12.704Z,16.50
2023-04-30T07:55:42.119Z,16.30
2023-04-30T07:58:11.685Z,17.00
2023-04-30T08:00:41.392Z,16.20
2023-04-30T08:03:09.965Z,18.10
2023-04-30T08:05:38.290Z,17.80
2023-04-30T08:08:08.411Z,18.40
2023-04-30T08:10:41.962Z,15.90
2023-04-30T08:13:10.211Z,16.60
2023-04-30T08:15:40.465Z,17.00
2023-04-30T08:18:11.176Z,17.00
2023-04-30T08:20:40.976Z,16.50
2023-04-30T08:23:11.058Z,17.00
2023-04-30T08:25:41.156Z,17.20
2023-04-30T08:28:09.584Z,17.30
2023-04-30T08:30:40.378Z,16.20
2023-04-30T08:33:10.529Z,17.70
2023-04-30T08:35:40.464Z,18.50
2023-04-30T08:38:10.402Z,16.70
2023-04-30T08:43:15.646Z,17.40
2023-04-30T08:45:45.634Z,17.50
2023-04-30T08:48:16.842Z,17.80
2023-04-30T08:50:46.644Z,18.00
2023-04-30T08:53:17.528Z,18.30
2023-04-30T08:55:48.930Z,17.30
2023-04-30T08:58:19.956Z,18.10
2023-04-30T09:00:48.557Z,18.00
2023-04-30T09:03:18.298Z,18.20
2023-04-30T09:05:47.034Z,17.50
2023-04-30T09:08:21.412Z,19.20
2023-04-30T09:10:52.298Z,19.80
2023-04-30T09:13:21.751Z,20.20
2023-04-30T09:15:53.514Z,18.70
2023-04-30T09:18:24.283Z,18.50
2023-04-30T09:20:58.974Z,20.00
2023-04-30T09:23:27.461Z,18.50
2023-04-30T09:25:58.687Z,18.90
2023-04-30T09:28:29.275Z,18.80
2023-04-30T09:30:59.761Z,18.70
2023-04-30T09:33:28.327Z,18.50
2023-04-30T09:35:57.812Z,18.60
2023-04-30T09:38:31.298Z,18.40
2023-04-30T09:41:02.945Z,18.60
2023-04-30T09:43:33.500Z,18.40
2023-04-30T09:46:01.962Z,18.50
2023-04-30T09:48:33.231Z,18.70
2023-04-30T09:51:05.426Z,18.80
2023-04-30T09:53:38.828Z,18.50
2023-04-30T09:56:09.537Z,18.80
2023-04-30T09:58:40.425Z,19.20
2023-04-30T10:01:12.022Z,19.60
2023-04-30T10:03:43.946Z,20.20
2023-04-30T10:06:15.659Z,20.30
2023-04-30T10:08:49.754Z,20.30
2023-04-30T10:11:23.818Z,20.40
2023-04-30T10:14:03.177Z,20.30
2023-04-30T10:16:41.368Z,20.30
2023-04-30T10:19:18.340Z,20.50
2023-04-30T10:21:49.104Z,20.60
2023-04-30T10:24:21.663Z,20.70
2023-04-30T10:26:52.862Z,20.80
2023-04-30T10:29:22.219Z,20.90
2023-04-30T10:31:54.095Z,21.00
2023-04-30T10:34:38.172Z,20.90
2023-04-30T10:37:13.244Z,21.00
2023-04-30T10:39:44.181Z,21.10
2023-04-30T10:42:15.047Z,21.30
2023-04-30T10:44:45.834Z,21.60
2023-04-30T10:47:13.990Z,21.70
2023-04-30T10:49:49.685Z,21.30
2023-04-30T10:52:29.935Z,20.60
2023-04-30T10:54:58.170Z,21.30
2023-04-30T10:57:31.045Z,21.60
2023-04-30T11:00:21.685Z,21.60
2023-04-30T11:02:50.323Z,21.70
2023-04-30T11:05:21.548Z,22.20
2023-04-30T11:07:53.434Z,22.10
2023-04-30T11:10:25.831Z,22.10
2023-04-30T11:12:58.613Z,22.20
2023-04-30T11:15:34.156Z,22.30
2023-04-30T11:18:02.710Z,22.50
2023-04-30T11:20:31.104Z,22.60
2023-04-30T11:23:12.745Z,22.80
2023-04-30T11:25:45.476Z,23.00
2023-04-30T11:28:18.956Z,23.00
2023-04-30T11:30:53.407Z,22.80
2023-04-30T11:33:24.296Z,22.60
2023-04-30T11:35:54.384Z,22.80
2023-04-30T11:38:27.145Z,22.60
2023-04-30T11:40:58.709Z,22.70
2023-04-30T11:43:31.422Z,22.70
2023-04-30T11:46:04.441Z,23.00
2023-04-30T11:48:34.207Z,23.30
2023-04-30T11:51:15.786Z,23.20
2023-04-30T11:53:45.510Z,23.20
2023-04-30T11:56:15.143Z,23.20
2023-04-30T11:58:48.594Z,23.20
2023-04-30T12:01:17.571Z,23.00
2023-04-30T12:03:47.786Z,22.90
2023-04-30T12:06:24.635Z,22.90
2023-04-30T12:08:56.332Z,22.80
2023-04-30T12:11:28.185Z,22.90
2023-04-30T12:14:07.706Z,22.60
2023-04-30T12:16:44.554Z,22.60
2023-04-30T12:19:13.988Z,22.90
2023-04-30T12:21:44.972Z,23.40
2023-04-30T12:24:13.420Z,23.10
2023-04-30T12:26:43.779Z,23.10
2023-04-30T12:29:18.135Z,23.50
2023-04-30T12:31:50.064Z,23.10
2023-04-30T12:34:19.026Z,21.90
2023-04-30T12:36:47.607Z,20.10
2023-04-30T12:39:18.693Z,22.70
2023-04-30T12:41:49.851Z,22.20
2023-04-30T12:44:22.159Z,22.90
2023-04-30T12:46:53.428Z,22.80
2023-04-30T12:49:28.472Z,22.70
2023-04-30T12:52:02.286Z,22.70
2023-04-30T12:54:33.631Z,22.70
2023-04-30T12:57:05.626Z,22.80
2023-04-30T12:59:40.977Z,23.00
2023-04-30T13:02:11.570Z,22.80
2023-04-30T13:04:43.743Z,22.40
2023-04-30T13:07:12.511Z,22.50
2023-04-30T13:09:42.032Z,22.50
2023-04-30T13:12:10.405Z,22.50
2023-04-30T13:14:42.339Z,22.60
2023-04-30T13:17:13.885Z,22.50
2023-04-30T13:19:42.600Z,22.40
2023-04-30T13:22:10.751Z,22.30
2023-04-30T13:24:40.265Z,22.30
2023-04-30T13:27:08.454Z,22.30
2023-04-30T13:29:39.106Z,22.40
2023-04-30T13:32:10.562Z,22.50
2023-04-30T13:34:40.412Z,22.40
2023-04-30T13:37:08.867Z,22.50
2023-04-30T13:39:37.170Z,22.60
2023-04-30T13:42:06.797Z,22.50
2023-04-30T13:44:37.043Z,22.30
2023-04-30T13:47:07.603Z,22.20
2023-04-30T13:49:38.595Z,22.20
2023-04-30T13:52:07.017Z,22.40
2023-04-30T13:54:36.482Z,22.70
2023-04-30T13:57:06.494Z,22.70
2023-04-30T13:59:35.916Z,22.70
2023-04-30T14:02:04.167Z,23.00
2023-04-30T14:04:34.921Z,22.90
2023-04-30T14:07:07.853Z,22.90
2023-04-30T14:09:38.489Z,23.10
2023-04-30T14:12:07.020Z,23.20
2023-04-30T14:17:04.738Z,23.20
2023-04-30T14:19:33.044Z,23.30
2023-04-30T14:22:01.428Z,23.10
2023-04-30T14:24:32.857Z,23.30
2023-04-30T14:27:03.748Z,23.60
2023-04-30T14:29:33.544Z,23.20
2023-04-30T14:32:02.372Z,23.00
2023-04-30T14:34:31.806Z,22.60
2023-04-30T14:37:01.931Z,22.30
2023-04-30T14:39:31.571Z,22.40
2023-04-30T14:41:59.978Z,22.80
2023-04-30T14:44:29.673Z,22.90
2023-04-30T14:46:59.119Z,22.80
2023-04-30T14:49:29.752Z,22.70
2023-04-30T14:51:59.265Z,22.70
2023-04-30T14:54:28.781Z,22.90
2023-04-30T14:56:59.850Z,23.00
2023-04-30T14:59:29.581Z,22.80
2023-04-30T15:01:59.552Z,22.50
2023-04-30T15:04:30.364Z,22.30
2023-04-30T15:06:59.072Z,22.30
2023-04-30T15:09:30.078Z,22.40
2023-04-30T15:12:00.782Z,22.40
2023-04-30T15:14:30.269Z,22.30
2023-04-30T15:16:59.559Z,22.40
2023-04-30T15:19:29.081Z,22.10
2023-04-30T15:21:58.596Z,22.50
2023-04-30T15:24:27.076Z,22.60
2023-04-30T15:26:55.470Z,21.90
2023-04-30T15:29:25.571Z,22.60
2023-04-30T15:31:55.107Z,22.60
2023-04-30T15:34:26.029Z,22.50
2023-04-30T15:36:54.246Z,22.40
2023-04-30T15:39:23.994Z,22.80
2023-04-30T15:41:52.593Z,23.00
2023-04-30T15:44:22.036Z,23.00
2023-04-30T15:46:52.916Z,22.90
2023-04-30T15:49:21.269Z,22.80
2023-04-30T15:51:49.551Z,22.70
2023-04-30T15:54:19.152Z,23.20
2023-04-30T15:56:49.330Z,22.70
2023-04-30T15:59:19.798Z,21.90
2023-04-30T16:01:48.543Z,21.90
2023-04-30T16:04:23.014Z,21.70
2023-04-30T16:06:52.580Z,21.20
2023-04-30T16:09:22.257Z,20.80
2023-04-30T16:11:50.838Z,19.80
2023-04-30T16:14:20.397Z,20.00
2023-04-30T16:16:48.540Z,20.60
2023-04-30T16:19:19.732Z,19.40
2023-04-30T16:21:48.250Z,20.40
2023-04-30T16:24:17.615Z,20.60
2023-04-30T16:26:47.046Z,18.00
2023-04-30T16:29:17.750Z,18.60
2023-04-30T16:31:48.143Z,18.90
2023-04-30T16:34:20.362Z,19.00
2023-04-30T16:36:49.776Z,18.90
2023-04-30T16:39:20.394Z,18.30
2023-04-30T16:41:49.831Z,19.10
2023-04-30T16:44:20.412Z,18.20
2023-04-30T16:46:49.035Z,18.90
2023-04-30T16:49:18.836Z,19.30
2023-04-30T16:51:48.495Z,19.40
2023-04-30T16:54:16.998Z,20.60
2023-04-30T16:59:15.163Z,18.90
2023-04-30T17:01:44.661Z,18.90
2023-04-30T17:04:14.188Z,18.40
2023-04-30T17:06:45.119Z,19.50
2023-04-30T17:09:13.503Z,18.20
2023-04-30T17:11:41.913Z,17.70
2023-04-30T17:14:11.740Z,19.10
2023-04-30T17:16:42.312Z,17.60
2023-04-30T17:19:10.437Z,18.70
2023-04-30T17:21:38.706Z,18.60
2023-04-30T17:24:09.711Z,18.20
2023-04-30T17:26:39.120Z,16.20
2023-04-30T17:29:09.688Z,17.30
2023-04-30T17:31:37.905Z,16.80
2023-04-30T17:34:07.280Z,17.20
2023-04-30T17:36:35.463Z,16.40
2023-04-30T17:41:37.672Z,15.90
2023-04-30T17:44:07.124Z,15.90
2023-04-30T17:46:38.516Z,15.40
2023-04-30T17:49:06.908Z,15.20
2023-04-30T17:51:36.319Z,15.30
2023-04-30T17:54:06.269Z,15.20
2023-04-30T17:56:36.366Z,14.40
2023-04-30T17:59:05.702Z,16.00
2023-04-30T18:01:33.837Z,14.10
2023-04-30T18:04:03.790Z,15.60
2023-04-30T18:06:34.453Z,15.50
2023-04-30T18:09:05.455Z,14.00
2023-04-30T18:11:33.776Z,15.50
2023-04-30T18:14:04.734Z,15.50
2023-04-30T18:16:36.592Z,12.80
2023-04-30T18:19:07.768Z,12.60
2023-04-30T18:21:36.152Z,12.20
2023-04-30T18:24:06.389Z,11.90
2023-04-30T18:26:34.563Z,13.80
2023-04-30T18:29:06.597Z,12.90
2023-04-30T18:31:36.804Z,12.70
2023-04-30T18:34:07.971Z,13.20
2023-04-30T18:36:36.903Z,12.00
2023-04-30T18:39:06.790Z,11.80
2023-04-30T18:41:37.446Z,12.30
2023-04-30T18:44:09.190Z,12.20
2023-04-30T18:46:38.691Z,11.10
2023-04-30T18:49:08.018Z,12.80
2023-04-30T18:51:36.418Z,11.00
2023-04-30T18:54:06.941Z,11.00
2023-04-30T18:56:36.961Z,11.00
2023-04-30T18:59:09.181Z,10.10
2023-04-30T19:01:38.605Z,10.10
2023-04-30T19:04:10.453Z,10.40
2023-04-30T19:06:38.708Z,11.30
2023-04-30T19:09:10.481Z,11.10
2023-04-30T19:11:39.971Z,11.00
2023-04-30T19:14:10.692Z,9.20
2023-04-30T19:16:40.214Z,9.90
2023-04-30T19:19:10.874Z,9.50
2023-04-30T19:21:40.377Z,11.30
2023-04-30T19:24:09.713Z,9.30
2023-04-30T19:26:39.224Z,11.10
2023-04-30T19:29:09.984Z,9.70
2023-04-30T19:31:39.378Z,11.00
2023-04-30T19:34:07.555Z,10.50
2023-04-30T19:36:36.961Z,10.50
2023-04-30T19:39:10.162Z,9.30
2023-04-30T19:41:38.449Z,10.40
2023-04-30T19:44:10.145Z,10.20
2023-04-30T19:46:38.482Z,10.20
2023-04-30T19:49:09.585Z,7.50
2023-04-30T19:54:07.888Z,7.90
2023-04-30T19:56:37.335Z,9.90
2023-04-30T19:59:06.692Z,8.90
2023-04-30T20:01:38.459Z,9.80
2023-04-30T20:04:09.350Z,7.90
2023-04-30T20:06:38.995Z,7.60
2023-04-30T20:14:09.363Z,7.60
2023-04-30T20:16:39.039Z,9.40
2023-04-30T20:19:08.615Z,9.50
2023-04-30T20:21:36.739Z,10.40
2023-04-30T20:24:07.737Z,8.40
2023-04-30T20:26:37.086Z,8.10
2023-04-30T20:29:05.204Z,10.60
2023-04-30T20:31:34.402Z,8.00
2023-04-30T20:34:06.679Z,8.50
2023-04-30T20:36:35.994Z,8.10
2023-04-30T20:39:04.895Z,8.50
2023-04-30T20:41:35.196Z,10.90
2023-04-30T20:44:05.291Z,10.80
2023-04-30T20:46:34.738Z,9.50
2023-04-30T20:49:05.563Z,8.00
2023-04-30T20:51:33.828Z,8.60
2023-04-30T20:54:03.149Z,8.50
2023-04-30T20:56:32.698Z,8.40
2023-04-30T20:59:03.555Z,7.80
2023-04-30T21:01:32.916Z,10.30
2023-04-30T21:04:03.693Z,8.70
2023-04-30T21:06:34.358Z,10.30
2023-04-30T21:09:05.184Z,8.30
2023-04-30T21:11:34.698Z,7.60
2023-04-30T21:14:04.003Z,10.60
2023-04-30T21:16:33.078Z,9.90
2023-04-30T21:21:30.438Z,9.00
2023-04-30T21:24:02.231Z,8.80
2023-04-30T21:26:31.687Z,10.00
2023-04-30T21:29:02.440Z,9.70
2023-04-30T21:31:31.863Z,7.30
2023-04-30T21:34:00.376Z,8.60
2023-04-30T21:36:31.103Z,7.50
2023-04-30T21:39:00.477Z,7.50
2023-04-30T21:41:30.334Z,9.60
2023-04-30T21:43:58.334Z,8.60
2023-04-30T21:46:27.679Z,8.60
2023-04-30T21:48:56.619Z,7.00
2023-04-30T21:53:57.300Z,7.50
2023-04-30T21:56:28.011Z,9.70
2023-04-30T21:58:57.369Z,7.10
2023-04-30T22:01:29.875Z,8.20
2023-04-30T22:03:59.785Z,7.00
2023-04-30T22:06:29.681Z,8.60
2023-04-30T22:08:57.706Z,9.50
2023-04-30T22:11:30.020Z,9.10
2023-04-30T22:13:58.934Z,6.20
2023-04-30T22:16:28.502Z,6.30
2023-04-30T22:21:28.731Z,7.70
2023-04-30T22:23:58.374Z,6.00
2023-04-30T22:26:29.074Z,6.40
2023-04-30T22:28:57.150Z,5.60
2023-04-30T22:31:27.981Z,6.40
2023-04-30T22:33:57.303Z,8.10
2023-04-30T22:36:28.320Z,8.40
2023-04-30T22:38:56.384Z,7.80
2023-04-30T22:41:27.291Z,8.00
2023-04-30T22:43:58.161Z,7.00
2023-04-30T22:46:27.717Z,5.20
2023-04-30T22:48:57.383Z,5.00
2023-04-30T22:51:27.656Z,7.90
2023-04-30T22:53:57.348Z,6.50
2023-04-30T22:56:26.821Z,5.30
2023-04-30T22:58:54.947Z,7.10
2023-04-30T23:01:26.083Z,7.40
2023-04-30T23:03:55.462Z,6.30
2023-04-30T23:06:25.455Z,7.70
2023-04-30T23:08:54.892Z,6.90
2023-04-30T23:11:24.790Z,6.00
2023-04-30T23:13:54.114Z,7.50
2023-04-30T23:16:23.517Z,7.60
2023-04-30T23:18:54.383Z,4.70
2023-04-30T23:21:24.263Z,6.10
2023-04-30T23:23:52.353Z,7.60
2023-04-30T23:26:21.897Z,4.90
2023-04-30T23:28:51.416Z,6.80
2023-04-30T23:33:48.116Z,4.90
2023-04-30T23:36:18.952Z,6.90
2023-04-30T23:38:47.532Z,6.00
2023-04-30T23:41:18.054Z,7.30
2023-04-30T23:46:16.488Z,6.40
2023-04-30T23:51:16.720Z,4.50
2023-04-30T23:53:47.369Z,5.10
2023-04-30T23:56:17.252Z,6.30
2023-04-30T23:58:45.593Z,6.80
